Flight Track Log - Related Links

Times and Time Zones

All times are in EST time to prevent confusion due to time zone crossing. See the EJA749 flight status page for this flight to view local times or setup timezone preferences in your user account.

Time Position Orientation Groundspeed Altitude Reporting Facility
EST Latitude Longitude Course Direction KTS km/h meters Rate Location/Type
Wed 11:44:11 36.0650 -115.1772 206° Southwest 211 391 1,067  Level Los Angeles Center
Wed 11:44:53 36.0250 -115.2011 206° Southwest 219 406 1,676 587 Climbing Los Angeles Center
Wed 11:46:00 35.9822 -115.2733 234° Southwest 258 478 2,134 356 Climbing Los Angeles Center
Wed 11:46:10 35.9744 -115.2825 224° Southwest 258 478 2,134 689 Level Los Angeles Center
Wed 11:47:01 35.9119 -115.2778 176° South 270 501 2,835 1,091 Climbing Los Angeles Center
Wed 11:47:12 35.8953 -115.2719 164° South 274 507 3,261 1,137 Climbing Los Angeles Center
Wed 11:48:15 35.8450 -115.1872 126° Southeast 344 637 4,237 1,039 Climbing Los Angeles Center
Wed 11:49:17 35.8244 -115.0494 100° East 390 723 5,425 1,009 Climbing Los Angeles Center
Wed 11:50:31 35.8367 -114.9103 84° East 412 763 6,523 941 Climbing Los Angeles Center
Wed 11:51:33 35.8519 -114.7297 84° East 427 790 7,559 527 Climbing Los Angeles Center
Wed 11:52:36 35.8658 -114.5758 84° East 446 826 7,620 29 Climbing Los Angeles Center
Wed 11:53:38 35.8781 -114.4242 84° East 447 827 7,620  Level Los Angeles Center
Wed 11:54:40 35.8917 -114.2725 84° East 446 826 7,620  Level Los Angeles Center
Wed 11:55:42 35.9089 -114.0872 83° East 453 838 7,620  Level Los Angeles Center
Wed 11:56:43 35.9178 -113.9650 85° East 450 834 7,620  Level Los Angeles Center
Wed 11:57:58 35.9044 -113.7853 95° East 445 824 7,620  Level Los Angeles Center
Wed 11:59:01 35.8761 -113.6061 101° East 444 822 7,620  Level Los Angeles Center
Wed 12:00:02 35.8497 -113.4397 101° East 445 824 7,620  Level Los Angeles Center
Wed 12:01:04 35.8275 -113.2906 100° East 443 821 7,620  Level Los Angeles Center
Wed 12:02:06 35.8150 -113.1400 96° East 441 816 7,620  Level Los Angeles Center
Wed 12:03:08 35.8019 -112.9883 96° East 442 819 7,620  Level Los Angeles Center
Wed 12:04:10 35.7889 -112.8369 96° East 442 819 7,620  Level Los Angeles Center
Wed 12:05:12 35.7758 -112.6864 96° East 441 816 7,620  Level Los Angeles Center
Wed 12:06:14 35.7619 -112.5353 96° East 442 819 7,620  Level Los Angeles Center
Wed 12:07:16 35.7492 -112.3856 96° East 440 814 7,620  Level Los Angeles Center
Wed 12:08:18 35.7336 -112.2058 96° East 439 813 7,620  Level Los Angeles Center
Wed 12:09:21 35.7192 -112.0564 97° East 440 814 7,620  Level Los Angeles Center
Wed 12:10:23 35.7056 -111.9058 96° East 441 816 7,620  Level Los Angeles Center
Wed 12:11:25 35.6903 -111.7550 97° East 445 824 7,620  Level Los Angeles Center
Wed 12:12:27 35.6747 -111.5894 97° East 440 814 7,620  Level Los Angeles Center
Wed 12:13:01 35.6661 -111.5150 98° East 442 819 7,620  Level Albuquerque Center
Wed 12:14:03 35.6492 -111.3386 97° East 441 816 7,620  Level Albuquerque Center
Wed 12:15:05 35.6367 -111.1950 96° East 441 816 7,620  Level Albuquerque Center
Wed 12:16:07 35.6197 -111.0511 98° East 441 816 7,620  Level Albuquerque Center
Wed 12:17:09 35.6028 -110.8858 97° East 439 813 7,620  Level Albuquerque Center
Wed 12:18:11 35.5892 -110.7475 97° East 432 800 7,620  Level Albuquerque Center
Wed 12:19:13 35.5719 -110.5878 98° East 425 787 7,620  Level Albuquerque Center
Wed 12:20:15 35.5575 -110.4503 97° East 424 785 7,620  Level Albuquerque Center
Wed 12:21:17 35.5406 -110.2919 97° East 422 782 7,620  Level Albuquerque Center
Wed 12:22:19 35.5275 -110.1569 97° East 419 776 7,620  Level Albuquerque Center
Wed 12:23:22 35.5089 -109.9922 98° East 430 797 7,620  Level Albuquerque Center
Wed 12:24:24 35.4936 -109.8461 97° East 443 821 7,620  Level Albuquerque Center
Wed 12:25:26 35.4744 -109.6753 98° East 451 835 7,620  Level Albuquerque Center
Wed 12:26:28 35.4575 -109.5297 98° East 451 835 7,620  Level Albuquerque Center
Wed 12:27:30 35.4383 -109.3597 98° East 452 837 7,620  Level Albuquerque Center
Wed 12:28:32 35.4208 -109.2142 98° East 453 838 7,620  Level Albuquerque Center
Wed 12:29:34 35.4006 -109.0450 98° East 453 838 7,620  Level Albuquerque Center
Wed 12:30:36 35.3833 -108.9008 98° East 451 835 7,620  Level Albuquerque Center
Wed 12:31:38 35.3633 -108.7325 98° East 450 834 7,620  Level Albuquerque Center
Wed 12:32:40 35.3453 -108.5856 99° East 453 838 7,620  Level Albuquerque Center
Wed 12:33:42 35.3233 -108.4100 99° East 462 856 7,620  Level Albuquerque Center
Wed 12:34:44 35.3039 -108.2569 99° East 468 867 7,620  Level Albuquerque Center
Wed 12:35:46 35.2817 -108.0783 99° East 474 877 7,620  Level Albuquerque Center
Wed 12:36:48 35.2611 -107.9247 99° East 477 884 7,620  Level Albuquerque Center
Wed 12:37:50 35.2386 -107.7456 99° East 478 885 7,620  Level Albuquerque Center
Wed 12:38:53 35.2183 -107.5908 99° East 480 888 7,620  Level Albuquerque Center
Wed 12:39:55 35.1956 -107.4086 99° East 483 895 7,620  Level Albuquerque Center
Wed 12:40:57 35.1753 -107.2553 99° East 479 887 7,620  Level Albuquerque Center
Wed 12:41:59 35.1514 -107.0831 100° East 481 892 7,620  Level Albuquerque Center
Wed 12:43:01 35.1264 -106.9083 100° East 484 896 7,620  Level Albuquerque Center
Wed 12:44:03 35.1069 -106.7625 99° East 481 892 7,620  Level Albuquerque Center
Wed 12:45:05 35.0850 -106.6028 99° East 479 887 7,620  Level Albuquerque Center
Wed 12:46:07 35.0567 -106.4089 100° East 483 895 7,620  Level Albuquerque Center
Wed 12:47:09 35.0339 -106.2486 100° East 484 896 7,620  Level Albuquerque Center
Wed 12:48:11 35.0108 -106.0953 100° East 477 884 7,620  Level Albuquerque Center
Wed 12:49:13 34.9900 -105.9475 100° East 463 858 7,620  Level Albuquerque Center
Wed 12:50:15 34.9672 -105.7944 100° East 458 848 7,620  Level Albuquerque Center
Wed 12:51:17 34.9442 -105.6369 100° East 468 867 7,620  Level Albuquerque Center
Wed 12:52:20 34.9161 -105.4511 100° East 466 863 7,620  Level Albuquerque Center
Wed 12:53:22 34.8922 -105.2947 101° East 467 864 7,620  Level Albuquerque Center
Wed 12:54:24 34.8686 -105.1394 100° East 465 861 7,620  Level Albuquerque Center
Wed 12:55:26 34.8453 -104.9833 100° East 465 861 7,620  Level Albuquerque Center
Wed 12:56:28 34.8203 -104.8278 101° East 466 863 7,620  Level Albuquerque Center
Wed 12:57:30 34.7964 -104.6719 101° East 467 864 7,620  Level Albuquerque Center
Wed 12:58:32 34.7683 -104.4897 101° East 468 867 7,620  Level Albuquerque Center
Wed 12:59:34 34.7431 -104.3336 101° East 470 871 7,620  Level Albuquerque Center
Wed 13:00:36 34.7192 -104.1794 101° East 466 863 7,620  Level Albuquerque Center
Wed 13:01:38 34.6944 -104.0236 101° East 468 867 7,620  Level Albuquerque Center
Wed 13:02:40 34.6692 -103.8686 101° East 467 864 7,620  Level Albuquerque Center
Wed 13:03:43 34.6392 -103.6889 101° East 464 859 7,620  Level Albuquerque Center
Wed 13:04:45 34.6136 -103.5347 101° East 464 859 7,620  Level Albuquerque Center
Wed 13:05:47 34.5875 -103.3789 101° East 466 863 7,620  Level Albuquerque Center
Wed 13:06:49 34.5628 -103.2250 101° East 464 859 7,620  Level Albuquerque Center
Wed 13:07:51 34.5350 -103.0706 102° East 465 861 7,620  Level Albuquerque Center
Wed 13:08:53 34.5089 -102.9153 101° East 467 864 7,620  Level Albuquerque Center
Wed 13:09:56 34.4847 -102.7503 100° East 467 864 7,620  Level Albuquerque Center
Wed 13:10:58 34.4706 -102.5936 96° East 470 871 7,620  Level Albuquerque Center
Wed 13:12:00 34.4539 -102.4386 97° East 468 867 7,620  Level Albuquerque Center
Wed 13:13:02 34.4342 -102.2494 97° East 472 874 7,620  Level Albuquerque Center
Wed 13:14:04 34.4172 -102.0942 97° East 471 872 7,620  Level Albuquerque Center
Wed 13:15:06 34.4000 -101.9367 98° East 472 874 7,620  Level Albuquerque Center
Wed 13:16:08 34.3831 -101.7783 97° East 475 880 7,620  Level Albuquerque Center
Wed 13:17:10 34.3653 -101.6197 98° East 477 884 7,620  Level Albuquerque Center
Wed 13:18:12 34.3442 -101.4281 98° East 481 892 7,620  Level Albuquerque Center
Wed 13:19:14 34.3261 -101.2675 98° East 482 893 7,620  Level Albuquerque Center
Wed 13:20:16 34.3086 -101.1078 98° East 483 895 7,620  Level Albuquerque Center
Wed 13:21:18 34.2892 -100.9508 98° East 480 888 7,620  Level Albuquerque Center
Wed 13:22:20 34.2697 -100.7908 98° East 481 892 7,620  Level Albuquerque Center
Wed 13:23:22 34.2467 -100.5989 98° East 484 896 7,620  Level Albuquerque Center
Wed 13:24:43 34.2231 -100.4061 98° East 483 895 7,620  Level Fort Worth Center
Wed 13:25:45 34.2022 -100.2447 99° East 483 895 7,620  Level Fort Worth Center
Wed 13:26:48 34.1533 -100.0619 108° East 473 875 7,620  Level Fort Worth Center
Wed 13:27:50 34.1136 -99.9128 108° East 468 867 7,620  Level Fort Worth Center
Wed 13:28:52 34.0731 -99.7606 108° East 474 877 7,620  Level Fort Worth Center
Wed 13:29:54 34.0325 -99.6069 108° East 477 884 7,620  Level Fort Worth Center
Wed 13:30:56 33.9925 -99.4536 107° East 476 882 7,620 -59 Level Fort Worth Center
Wed 13:31:58 33.9531 -99.3031 107° East 472 874 7,498 -148 Descending Fort Worth Center
Wed 13:33:00 33.9131 -99.1508 108° East 474 877 7,315 -88 Descending Fort Worth Center
Wed 13:34:02 33.8678 -98.9856 108° East 474 877 7,315 -146 Level Fort Worth Center
Wed 13:35:05 33.8208 -98.8086 108° East 492 911 7,010 -395 Descending Fort Worth Center
Wed 13:36:07 33.7806 -98.6567 108° East 456 845 6,492 -501 Descending Fort Worth Center
Wed 13:37:09 33.7406 -98.5103 108° East 444 822 5,974 -516 Descending Fort Worth Center
Wed 13:38:11 33.7022 -98.3667 108° East 434 803 5,425 -413 Descending Fort Worth Center
Wed 13:39:13 33.6661 -98.2364 108° East 423 784 5,121 -325 Descending Fort Worth Center
Wed 13:40:15 33.6289 -98.1008 108° East 412 763 4,755 -354 Descending Fort Worth Center
Wed 13:41:17 33.5914 -97.9656 108° East 408 756 4,389 -339 Descending Fort Worth Center
Wed 13:42:19 33.5528 -97.8311 109° East 393 727 4,054 -325 Descending Fort Worth Center
Wed 13:43:21 33.5186 -97.7125 109° East 379 702 3,719 -325 Descending Fort Worth Center
Wed 13:44:23 33.4842 -97.5914 109° East 383 710 3,383 -307 Descending Fort Worth Center
Wed 13:45:26 33.4478 -97.4703 110° East 359 665 3,078 -205 Descending Fort Worth Center
Wed 13:46:28 33.3867 -97.4031 137° Southeast 308 570 2,957 -359 Descending Fort Worth Center
Wed 13:47:18 33.3667 -97.3167 105° East 304 563 2,408 -643 Descending Dallas / Fort Worth TRACON
Wed 13:48:19 33.3500 -97.2333 103° East 292 541 1,768 -436 Descending Dallas / Fort Worth TRACON
Wed 13:49:24 33.3333 -97.1500 103° East 239 443 1,494 -225 Descending Dallas / Fort Worth TRACON
Wed 13:50:37 33.3069 -97.0475 107° East 248 459 1,250 -109 Descending Fort Worth Center
Wed 13:51:38 33.2692 -96.9808 124° Southeast 243 451 1,250  Level Fort Worth Center
Wed 13:52:40 33.2247 -96.9164 129° Southeast 249 462 1,250 -15 Level Fort Worth Center
Wed 13:53:42 33.1786 -96.8467 128° Southeast 253 468 1,219 -15 Descending Fort Worth Center
Wed 13:54:44 33.1206 -96.7872 139° Southeast 256 475 1,219 -152 Level Fort Worth Center
Wed 13:55:30 33.0833 -96.7500 140° Southeast 255 472 945 -183 Descending Dallas / Fort Worth TRACON
Wed 13:56:24 33.0333 -96.6833 132° Southeast 254 470 914 -34 Descending Dallas / Fort Worth TRACON
Wed 13:57:19 32.9833 -96.6500 151° Southeast 211 391 884  Descending Dallas / Fort Worth TRACON
Wed 13:58:19 32.9167 -96.6500 180° South 229 425 914 -58 Climbing Dallas / Fort Worth TRACON
Wed 13:59:25 32.8500 -96.6500 180° South 240 444 762 -101 Descending Dallas / Fort Worth TRACON
Wed 14:00:25 32.8000 -96.7000 220° Southwest 193 357 701 -29 Descending Dallas / Fort Worth TRACON
Wed 14:01:30 32.7667 -96.7333 220° Southwest 170 315 701 -59 Level Dallas / Fort Worth TRACON
Wed 14:02:30 32.8000 -96.7833 308° West 153 283 579 -193 Descending Dallas / Fort Worth TRACON
Wed 14:03:24 32.8167 -96.8167 301° West 141 261 335 -271 Descending Dallas / Fort Worth TRACON

Login

Don't have an account? Register now (free) for customized features, flight alerts, and more!